LIPL 200055Z 05005KT CAVOK 18/13 Q1025 RMK SKC VIS MIN 9999 WIND THR31 06006KT WIND THR13 05006KT BLU LIPL 192355Z 07006KT CAVOK 19/14 Q1025 RMK SKC VIS MIN 9999 WIND THR31 07006KT WIND THR13 06006KT BLU LIPL 192255Z 08007KT CAVOK 20/15 Q1025 RMK SKC VIS MIN 9999 WIND THR31 07006KT WIND THR13 07006KT BLU LIPL 192155Z 08006KT CAVOK 21/15 Q1025 RMK SKC VIS MIN 9999 WIND THR31 08006KT WIND THR13 08007KT BLU LIPL 192055Z 12008KT CAVOK 22/17 Q1025 RMK SCT SCT200 VIS MIN 9999 WIND THR31 12008KT WIND THR13 12010KT BLU LIPL 191955Z 12003KT CAVOK 23/17 Q1024 RMK SCT SCT200 VIS MIN 9999 WIND THR31 11003KT WIND THR13 13003KT BLU LIPL 191855Z 13003KT CAVOK 24/17 Q1024 RMK SCT SCT200 VIS MIN 9999 WIND THR31 11003KT WIND THR13 14003KT BLU LIPL 191755Z 15004KT CAVOK 25/18 Q1024 RMK SCT SCT200 VIS MIN 9999 WIND THR31 15004KT WIND THR13 14004KT BLU LIPL 191655Z 15004KT CAVOK 26/17 Q1024 RMK SCT SCT200 VIS MIN 9999 WIND THR31 14004KT WIND THR13 12004KT BLU LIPL 191555Z 15005KT CAVOK 26/17 Q1024 RMK SCT SCT200 VIS MIN 9999 WIND THR31 14006KT WIND THR13 14005KT BLU LIPL 191455Z 15005KT CAVOK 26/17 Q1024 RMK SCT SCT200 VIS MIN 9999 WIND THR31 15003KT WIND THR13 15004KT BLU LIPL 191355Z 17004KT CAVOK 26/17 Q1025 RMK SKC VIS MIN 9999 WIND THR31 12006KT WIND THR13 16004KT BLU LIPL 191255Z 17004KT CAVOK 25/16 Q1025 RMK SKC VIS MIN 9999 WIND THR31 16004KT WIND THR13 17004KT BLU LIPL 191155Z 20004KT CAVOK 25/17 Q1026 RMK SKC VIS MIN 9999 WIND THR31 15006KT WIND THR13 15004KT BLU LIPL 191055Z 15003KT CAVOK 24/16 Q1026 RMK SKC VIS MIN 9999 WIND THR31 14005KT WIND THR13 14004KT BLU LIPL 190955Z 20003KT CAVOK 23/15 Q1027 RMK SKC VIS MIN 9999 WIND THR31 11005KT WIND THR13 18003KT BLU LIPL 190855Z 11004KT CAVOK 22/15 Q1027 RMK SKC VIS MIN 9999 WIND THR31 18004KT WIND THR13 13005KT BLU LIPL 190755Z 13005KT CAVOK 21/15 Q1027 RMK SCT SCT100 VIS MIN 9999 WIND THR31 13005KT WIND THR13 13006KT BLU LIPL 190655Z 13004KT CAVOK 20/15 Q1027 RMK SCT SCT100 VIS MIN 9999 WIND THR31 13005KT WIND THR13 14004KT BLU LIPL 190555Z 12004KT CAVOK 20/15 Q1026 RMK SCT SCT100 VIS MIN 9999 WIND THR31 12004KT WIND THR13 12004KT BLU LIPL 190455Z 08003KT CAVOK 18/14 Q1025 RMK SCT SCT100 VIS MIN 9999 WIND THR31 09002KT WIND THR13 07003KT BLU LIPL 190355Z 08005KT CAVOK 17/13 Q1025 RMK FEW FEW100 VIS MIN 9999 WIND THR31 09004KT WIND THR13 09005KT BLU LIPL 190255Z 08005KT CAVOK 18/13 Q1025 RMK SCT SCT120 VIS MIN 9999 WIND THR31 07005KT WIND THR13 07005KT BLU LIPL 190155Z 07007KT CAVOK 19/13 Q1024 RMK BKN SCT110 VIS MIN 9999 WIND THR31 07007KT WIND THR13 07006KT BLU LIPL 190055Z 08008KT CAVOK 19/14 Q1024 RMK BKN SCT100 VIS MIN 9999 WIND THR31 08008KT WIND THR13 08008KT BLU LIPL 182355Z 08008KT CAVOK 19/15 Q1024 RMK BKN BKN100 VIS MIN 9999 WIND THR31 07009KT WIND THR13 07008KT BLU LIPL 182255Z 07007KT CAVOK 19/15 Q1024 RMK SCT SCT130 VIS MIN 9999 WIND THR31 06006KT WIND THR13 07007KT BLU LIPL 182155Z 08006KT CAVOK 19/15 Q1023 RMK SCT SCT100 VIS MIN 9999 WIND THR31 09005KT WIND THR13 08006KT BLU LIPL 182055Z 12007KT CAVOK 20/15 Q1023 RMK SKC VIS MIN 9999 WIND THR31 12007KT WIND THR13 12008KT BLU LIPL 181955Z 12006KT CAVOK 21/15 Q1022 RMK SKC VIS MIN 9999 WIND THR31 12006KT WIND THR13 12006KT BLU LIPL 181855Z 12006KT CAVOK 22/16 Q1021 RMK FEW FEW120 VIS MIN 9999 WIND THR31 12006KT WIND THR13 12007KT BLU LIPL 181755Z 12010KT CAVOK 24/17 Q1021 RMK FEW FEW100 VIS MIN 9999 WIND THR31 11010KT WIND THR13 11011KT BLU LIPL 181655Z 13011KT 9999 FEW050 25/18 Q1021 RMK FEW VIS MIN 9999 WIND THR31 13011KT WIND THR13 12010KT BLU LIPL 181555Z 12010KT 9999 SCT040 26/18 Q1021 RMK SCT VIS MIN 9999 WIND THR31 12011KT WIND THR13 12010KT BLU LIPL 181455Z 11012KT 9999 SCT040 26/18 Q1021 RMK SCT VIS MIN 9999 WIND THR31 11012KT WIND THR13 11012KT BLU LIPL 181355Z 14010KT 9999 SCT040 26/18 Q1021 RMK SCT VIS MIN 9999 WIND THR31 10010KT WIND THR13 12011KT BLU

METAR Messwerte "GHEDI (IT-AFB)" LIPL

Zurück zur Übersicht

Ortsname
Ländercode / m ü. NN
Zeit Temperatur Taupunkt Rel.
Luftfeuchte
Luftdruck:
Altimeter
NN
Station
Wind in Beaufort
(Knoten)
Sichtweite
(Meter)
Wolken
(Meter über Grund)
Wettererscheinung
GHEDI (IT-AFB)
IT 96
Fr 20.05. 02:55181373 %1025
1025
1013
NO 2 (5)>= 10000Nicht signifikant 
GHEDI (IT-AFB)
IT 96
Fr 20.05. 01:55191473 %1025
1025
1013
ONO 2 (6)>= 10000Nicht signifikant 
GHEDI (IT-AFB)
IT 96
Fr 20.05. 00:55201573 %1025
1025
1013
O 3 (7)>= 10000Nicht signifikant 
GHEDI (IT-AFB)
IT 96
Do 19.05. 23:55211569 %1025
1025
1013
O 2 (6)>= 10000Nicht signifikant 
GHEDI (IT-AFB)
IT 96
Do 19.05. 22:55221773 %1025
1025
1013
OSO 3 (8)>= 10000Nicht signifikant 
GHEDI (IT-AFB)
IT 96
Do 19.05. 21:55231769 %1024
1024
1012
OSO 2 (3)>= 10000Nicht signifikant 
GHEDI (IT-AFB)
IT 96
Do 19.05. 20:55241765 %1024
1024
1012
SO 2 (3)>= 10000Nicht signifikant 
GHEDI (IT-AFB)
IT 96
Do 19.05. 19:55251865 %1024
1024
1012
SSO 2 (4)>= 10000Nicht signifikant 
GHEDI (IT-AFB)
IT 96
Do 19.05. 18:55261758 %1024
1024
1012
SSO 2 (4)>= 10000Nicht signifikant 
GHEDI (IT-AFB)
IT 96
Do 19.05. 17:55261758 %1024
1024
1012
SSO 2 (5)>= 10000Nicht signifikant 
GHEDI (IT-AFB)
IT 96
Do 19.05. 16:55261758 %1024
1024
1012
SSO 2 (5)>= 10000Nicht signifikant 
GHEDI (IT-AFB)
IT 96
Do 19.05. 15:55261758 %1025
1025
1013
S 2 (4)>= 10000Nicht signifikant 
GHEDI (IT-AFB)
IT 96
Do 19.05. 14:55251657 %1025
1025
1013
S 2 (4)>= 10000Nicht signifikant 
GHEDI (IT-AFB)
IT 96
Do 19.05. 13:55251761 %1026
1026
1014
SSW 2 (4)>= 10000Nicht signifikant 
GHEDI (IT-AFB)
IT 96
Do 19.05. 12:55241661 %1026
1026
1014
SSO 2 (3)>= 10000Nicht signifikant 
GHEDI (IT-AFB)
IT 96
Do 19.05. 11:55231561 %1027
1027
1015
SSW 2 (3)>= 10000Nicht signifikant 
GHEDI (IT-AFB)
IT 96
Do 19.05. 10:55221565 %1027
1027
1015
OSO 2 (4)>= 10000Nicht signifikant 
GHEDI (IT-AFB)
IT 96
Do 19.05. 09:55211569 %1027
1027
1015
SO 2 (5)>= 10000Nicht signifikant 
GHEDI (IT-AFB)
IT 96
Do 19.05. 08:55201573 %1027
1027
1015
SO 2 (4)>= 10000Nicht signifikant 
GHEDI (IT-AFB)
IT 96
Do 19.05. 07:55201573 %1026
1026
1014
OSO 2 (4)>= 10000Nicht signifikant 
GHEDI (IT-AFB)
IT 96
Do 19.05. 06:55181477 %1025
1025
1013
O 2 (3)>= 10000Nicht signifikant 
GHEDI (IT-AFB)
IT 96
Do 19.05. 05:55171377 %1025
1025
1013
O 2 (5)>= 10000Nicht signifikant 
GHEDI (IT-AFB)
IT 96
Do 19.05. 04:55181373 %1025
1025
1013
O 2 (5)>= 10000Nicht signifikant 
GHEDI (IT-AFB)
IT 96
Do 19.05. 03:55191368 %1024
1024
1012
ONO 3 (7)>= 10000Nicht signifikant 
GHEDI (IT-AFB)
IT 96
Do 19.05. 02:55191473 %1024
1024
1012
O 3 (8)>= 10000Nicht signifikant 
GHEDI (IT-AFB)
IT 96
Do 19.05. 01:55191578 %1024
1024
1012
O 3 (8)>= 10000Nicht signifikant 
GHEDI (IT-AFB)
IT 96
Do 19.05. 00:55191578 %1024
1024
1012
ONO 3 (7)>= 10000Nicht signifikant 
GHEDI (IT-AFB)
IT 96
Mi 18.05. 23:55191578 %1023
1023
1011
O 2 (6)>= 10000Nicht signifikant 
GHEDI (IT-AFB)
IT 96
Mi 18.05. 22:55201573 %1023
1023
1011
OSO 3 (7)>= 10000Nicht signifikant 
GHEDI (IT-AFB)
IT 96
Mi 18.05. 21:55211569 %1022
1022
1010
OSO 2 (6)>= 10000Nicht signifikant 
GHEDI (IT-AFB)
IT 96
Mi 18.05. 20:55221669 %1021
1021
1009
OSO 2 (6)>= 10000Nicht signifikant 
GHEDI (IT-AFB)
IT 96
Mi 18.05. 19:55241765 %1021
1021
1009
OSO 3 (10)>= 10000Nicht signifikant 
GHEDI (IT-AFB)
IT 96
Mi 18.05. 18:55251865 %1021
1021
1009
SO 4 (11)>= 10000Leicht bewölkt (1500) 
GHEDI (IT-AFB)
IT 96
Mi 18.05. 17:55261861 %1021
1021
1009
OSO 3 (10)>= 10000Wolkig (1200) 
GHEDI (IT-AFB)
IT 96
Mi 18.05. 16:55261861 %1021
1021
1009
OSO 4 (12)>= 10000Wolkig (1200) 
GHEDI (IT-AFB)
IT 96
Mi 18.05. 15:55261861 %1021
1021
1009
SO 3 (10)>= 10000Wolkig (1200) 

Altimeter: Einstellung am Altimeter (Höhenmesser), die Höhe 0 muss auf diesen Luftdruckwert zeigen, damit das Gerät die Stationshöhe richtig anzeigt.

NN: Luftdruck reduziert auf "Normal Null", auf Meereshöhe, dieser von der Temperatur abhängige Wert wird bisweilen unkorrekt einfach als "Luftdruck" bezeichnet. Eigentlich nur eine fiktive Größe, die es erlaubt, Stationen auf unterschiedlichen Höhen miteinander zu vergleichen.

Station: Realer Luftdruck an der Station.